sensor_id;sensor_type;location;lat;lon;timestamp;P1;durP1;ratioP1;P2;durP2;ratioP2
12707;SDS011;6418;50.824;4.718;2023-03-01T00:02:15;20.77;;;12.80;;
12707;SDS011;6418;50.824;4.718;2023-03-01T00:04:42;19.40;;;13.03;;
12707;SDS011;6418;50.824;4.718;2023-03-01T00:07:11;23.40;;;12.80;;
12707;SDS011;6418;50.824;4.718;2023-03-01T00:09:39;23.10;;;13.73;;
12707;SDS011;6418;50.824;4.718;2023-03-01T00:12:06;22.07;;;13.50;;
12707;SDS011;6418;50.824;4.718;2023-03-01T00:14:33;23.30;;;13.53;;
12707;SDS011;6418;50.824;4.718;2023-03-01T00:17:00;22.13;;;13.27;;
12707;SDS011;6418;50.824;4.718;2023-03-01T00:19:27;22.23;;;13.40;;
12707;SDS011;6418;50.824;4.718;2023-03-01T00:21:54;21.37;;;13.70;;
12707;SDS011;6418;50.824;4.718;2023-03-01T00:24:21;20.33;;;13.17;;
12707;SDS011;6418;50.824;4.718;2023-03-01T00:26:49;25.57;;;15.27;;
12707;SDS011;6418;50.824;4.718;2023-03-01T00:29:20;24.00;;;14.47;;
12707;SDS011;6418;50.824;4.718;2023-03-01T00:31:47;21.17;;;13.53;;
12707;SDS011;6418;50.824;4.718;2023-03-01T00:34:14;24.47;;;14.30;;
12707;SDS011;6418;50.824;4.718;2023-03-01T00:36:41;22.00;;;14.13;;
12707;SDS011;6418;50.824;4.718;2023-03-01T00:39:12;22.33;;;13.67;;
12707;SDS011;6418;50.824;4.718;2023-03-01T00:41:40;25.17;;;13.87;;
12707;SDS011;6418;50.824;4.718;2023-03-01T00:44:08;23.83;;;14.27;;
12707;SDS011;6418;50.824;4.718;2023-03-01T00:46:35;22.83;;;14.03;;
12707;SDS011;6418;50.824;4.718;2023-03-01T00:49:02;23.87;;;14.13;;
12707;SDS011;6418;50.824;4.718;2023-03-01T00:51:32;23.63;;;14.53;;
12707;SDS011;6418;50.824;4.718;2023-03-01T00:54:02;23.93;;;15.10;;
12707;SDS011;6418;50.824;4.718;2023-03-01T00:56:32;23.73;;;14.73;;
12707;SDS011;6418;50.824;4.718;2023-03-01T00:58:59;25.33;;;15.27;;
12707;SDS011;6418;50.824;4.718;2023-03-01T01:01:29;24.70;;;15.33;;
12707;SDS011;6418;50.824;4.718;2023-03-01T01:03:58;26.43;;;16.00;;
12707;SDS011;6418;50.824;4.718;2023-03-01T01:06:27;24.70;;;15.37;;
12707;SDS011;6418;50.824;4.718;2023-03-01T01:08:55;27.43;;;15.87;;
12707;SDS011;6418;50.824;4.718;2023-03-01T01:11:23;26.67;;;15.10;;
12707;SDS011;6418;50.824;4.718;2023-03-01T01:13:52;24.70;;;15.20;;
12707;SDS011;6418;50.824;4.718;2023-03-01T01:16:20;24.63;;;14.97;;
12707;SDS011;6418;50.824;4.718;2023-03-01T01:18:49;24.43;;;14.57;;
12707;SDS011;6418;50.824;4.718;2023-03-01T01:21:18;25.40;;;14.57;;
12707;SDS011;6418;50.824;4.718;2023-03-01T01:23:47;23.43;;;15.07;;
12707;SDS011;6418;50.824;4.718;2023-03-01T01:26:14;23.70;;;14.67;;
12707;SDS011;6418;50.824;4.718;2023-03-01T01:28:42;23.30;;;13.70;;
12707;SDS011;6418;50.824;4.718;2023-03-01T01:31:09;22.43;;;14.17;;
12707;SDS011;6418;50.824;4.718;2023-03-01T01:33:36;24.83;;;14.17;;
12707;SDS011;6418;50.824;4.718;2023-03-01T01:36:05;23.93;;;14.83;;
12707;SDS011;6418;50.824;4.718;2023-03-01T01:38:33;24.87;;;14.47;;
12707;SDS011;6418;50.824;4.718;2023-03-01T01:41:01;22.80;;;14.53;;
12707;SDS011;6418;50.824;4.718;2023-03-01T01:43:28;27.10;;;14.33;;
12707;SDS011;6418;50.824;4.718;2023-03-01T01:45:57;24.63;;;14.50;;
12707;SDS011;6418;50.824;4.718;2023-03-01T01:48:27;25.87;;;13.77;;
12707;SDS011;6418;50.824;4.718;2023-03-01T01:51:06;22.97;;;13.80;;
12707;SDS011;6418;50.824;4.718;2023-03-01T01:53:37;22.40;;;13.87;;
12707;SDS011;6418;50.824;4.718;2023-03-01T01:56:06;23.27;;;14.27;;
12707;SDS011;6418;50.824;4.718;2023-03-01T01:58:35;21.70;;;14.33;;
12707;SDS011;6418;50.824;4.718;2023-03-01T02:01:03;22.63;;;13.73;;
12707;SDS011;6418;50.824;4.718;2023-03-01T02:03:31;26.33;;;14.43;;
12707;SDS011;6418;50.824;4.718;2023-03-01T02:06:03;22.73;;;14.33;;
12707;SDS011;6418;50.824;4.718;2023-03-01T02:08:38;24.30;;;14.17;;
12707;SDS011;6418;50.824;4.718;2023-03-01T02:11:08;22.67;;;14.17;;
12707;SDS011;6418;50.824;4.718;2023-03-01T02:13:36;23.53;;;14.43;;
12707;SDS011;6418;50.824;4.718;2023-03-01T02:16:04;23.93;;;14.23;;
12707;SDS011;6418;50.824;4.718;2023-03-01T02:18:34;25.03;;;14.30;;
12707;SDS011;6418;50.824;4.718;2023-03-01T02:21:04;25.10;;;15.60;;
12707;SDS011;6418;50.824;4.718;2023-03-01T02:23:41;21.97;;;13.67;;
12707;SDS011;6418;50.824;4.718;2023-03-01T02:26:11;24.13;;;13.97;;
12707;SDS011;6418;50.824;4.718;2023-03-01T02:28:50;25.17;;;15.00;;
12707;SDS011;6418;50.824;4.718;2023-03-01T02:31:18;26.33;;;14.90;;
12707;SDS011;6418;50.824;4.718;2023-03-01T02:34:04;29.67;;;15.73;;
12707;SDS011;6418;50.824;4.718;2023-03-01T02:36:34;25.27;;;14.63;;
12707;SDS011;6418;50.824;4.718;2023-03-01T02:39:04;25.07;;;14.47;;
12707;SDS011;6418;50.824;4.718;2023-03-01T02:41:34;24.17;;;14.03;;
12707;SDS011;6418;50.824;4.718;2023-03-01T02:44:04;24.57;;;14.53;;
12707;SDS011;6418;50.824;4.718;2023-03-01T02:46:32;24.03;;;14.07;;
12707;SDS011;6418;50.824;4.718;2023-03-01T02:49:01;26.53;;;14.63;;
12707;SDS011;6418;50.824;4.718;2023-03-01T02:51:34;26.37;;;14.40;;
12707;SDS011;6418;50.824;4.718;2023-03-01T02:54:14;26.20;;;14.47;;
12707;SDS011;6418;50.824;4.718;2023-03-01T02:56:46;25.10;;;14.83;;
12707;SDS011;6418;50.824;4.718;2023-03-01T02:59:16;25.50;;;15.13;;
12707;SDS011;6418;50.824;4.718;2023-03-01T03:01:46;24.00;;;14.43;;
12707;SDS011;6418;50.824;4.718;2023-03-01T03:04:14;24.40;;;14.60;;
12707;SDS011;6418;50.824;4.718;2023-03-01T03:06:43;24.80;;;14.63;;
12707;SDS011;6418;50.824;4.718;2023-03-01T03:09:10;25.00;;;15.50;;
12707;SDS011;6418;50.824;4.718;2023-03-01T03:11:38;25.37;;;14.47;;
12707;SDS011;6418;50.824;4.718;2023-03-01T03:14:06;26.50;;;15.37;;
12707;SDS011;6418;50.824;4.718;2023-03-01T03:16:38;23.30;;;14.03;;
12707;SDS011;6418;50.824;4.718;2023-03-01T03:19:06;24.93;;;14.97;;
12707;SDS011;6418;50.824;4.718;2023-03-01T03:21:33;27.30;;;15.67;;
12707;SDS011;6418;50.824;4.718;2023-03-01T03:24:01;25.70;;;15.10;;
12707;SDS011;6418;50.824;4.718;2023-03-01T03:26:28;24.60;;;14.20;;
12707;SDS011;6418;50.824;4.718;2023-03-01T03:28:55;23.27;;;14.37;;
12707;SDS011;6418;50.824;4.718;2023-03-01T03:31:23;24.03;;;14.33;;
12707;SDS011;6418;50.824;4.718;2023-03-01T03:33:51;24.77;;;14.50;;
12707;SDS011;6418;50.824;4.718;2023-03-01T03:36:19;25.27;;;14.93;;
12707;SDS011;6418;50.824;4.718;2023-03-01T03:38:47;24.50;;;15.10;;
12707;SDS011;6418;50.824;4.718;2023-03-01T03:41:14;25.40;;;14.33;;
12707;SDS011;6418;50.824;4.718;2023-03-01T03:43:42;25.80;;;15.37;;
12707;SDS011;6418;50.824;4.718;2023-03-01T03:46:10;25.83;;;14.30;;
12707;SDS011;6418;50.824;4.718;2023-03-01T03:48:39;25.50;;;14.50;;
12707;SDS011;6418;50.824;4.718;2023-03-01T03:51:10;24.47;;;14.83;;
12707;SDS011;6418;50.824;4.718;2023-03-01T03:53:38;24.93;;;14.00;;
12707;SDS011;6418;50.824;4.718;2023-03-01T03:56:06;26.17;;;15.67;;
12707;SDS011;6418;50.824;4.718;2023-03-01T03:58:33;24.37;;;15.13;;
12707;SDS011;6418;50.824;4.718;2023-03-01T04:01:00;24.63;;;14.97;;
12707;SDS011;6418;50.824;4.718;2023-03-01T04:03:27;26.90;;;14.83;;
12707;SDS011;6418;50.824;4.718;2023-03-01T04:05:56;22.53;;;14.20;;
12707;SDS011;6418;50.824;4.718;2023-03-01T04:08:25;26.57;;;15.30;;
12707;SDS011;6418;50.824;4.718;2023-03-01T04:10:55;27.40;;;16.07;;
12707;SDS011;6418;50.824;4.718;2023-03-01T04:13:24;26.27;;;15.33;;
12707;SDS011;6418;50.824;4.718;2023-03-01T04:15:51;23.73;;;14.50;;
12707;SDS011;6418;50.824;4.718;2023-03-01T04:18:19;29.83;;;15.60;;
12707;SDS011;6418;50.824;4.718;2023-03-01T04:20:48;25.20;;;15.00;;
12707;SDS011;6418;50.824;4.718;2023-03-01T04:23:17;24.00;;;14.33;;
12707;SDS011;6418;50.824;4.718;2023-03-01T04:25:47;26.40;;;14.47;;
12707;SDS011;6418;50.824;4.718;2023-03-01T04:28:19;28.07;;;14.27;;
12707;SDS011;6418;50.824;4.718;2023-03-01T04:30:46;24.97;;;14.70;;
12707;SDS011;6418;50.824;4.718;2023-03-01T04:33:13;23.03;;;14.50;;
12707;SDS011;6418;50.824;4.718;2023-03-01T04:35:39;25.87;;;15.00;;
12707;SDS011;6418;50.824;4.718;2023-03-01T04:38:07;27.43;;;14.90;;
12707;SDS011;6418;50.824;4.718;2023-03-01T04:40:34;24.50;;;14.57;;
12707;SDS011;6418;50.824;4.718;2023-03-01T04:43:03;24.53;;;15.17;;
12707;SDS011;6418;50.824;4.718;2023-03-01T04:45:31;27.27;;;15.33;;
12707;SDS011;6418;50.824;4.718;2023-03-01T04:48:00;25.10;;;14.13;;
12707;SDS011;6418;50.824;4.718;2023-03-01T04:50:28;26.17;;;14.13;;
12707;SDS011;6418;50.824;4.718;2023-03-01T04:52:55;28.87;;;15.13;;
12707;SDS011;6418;50.824;4.718;2023-03-01T04:55:23;24.50;;;15.00;;
12707;SDS011;6418;50.824;4.718;2023-03-01T04:57:51;25.50;;;14.77;;
12707;SDS011;6418;50.824;4.718;2023-03-01T05:00:20;23.90;;;14.77;;
12707;SDS011;6418;50.824;4.718;2023-03-01T05:02:48;22.53;;;13.43;;
12707;SDS011;6418;50.824;4.718;2023-03-01T05:05:19;24.07;;;14.73;;
12707;SDS011;6418;50.824;4.718;2023-03-01T05:07:57;22.57;;;13.67;;
12707;SDS011;6418;50.824;4.718;2023-03-01T05:10:25;24.73;;;14.03;;
12707;SDS011;6418;50.824;4.718;2023-03-01T05:12:54;24.27;;;14.43;;
12707;SDS011;6418;50.824;4.718;2023-03-01T05:15:23;26.97;;;14.37;;
12707;SDS011;6418;50.824;4.718;2023-03-01T05:17:51;24.80;;;15.17;;
12707;SDS011;6418;50.824;4.718;2023-03-01T05:20:19;24.83;;;14.00;;
12707;SDS011;6418;50.824;4.718;2023-03-01T05:22:48;26.10;;;15.00;;
12707;SDS011;6418;50.824;4.718;2023-03-01T05:25:16;26.87;;;15.17;;
12707;SDS011;6418;50.824;4.718;2023-03-01T05:27:43;24.80;;;14.70;;
12707;SDS011;6418;50.824;4.718;2023-03-01T05:30:10;24.13;;;15.27;;
12707;SDS011;6418;50.824;4.718;2023-03-01T05:32:42;26.10;;;14.87;;
12707;SDS011;6418;50.824;4.718;2023-03-01T05:35:11;25.47;;;15.93;;
12707;SDS011;6418;50.824;4.718;2023-03-01T05:37:42;27.00;;;15.47;;
12707;SDS011;6418;50.824;4.718;2023-03-01T05:40:10;24.30;;;15.60;;
12707;SDS011;6418;50.824;4.718;2023-03-01T05:42:41;28.43;;;16.00;;
12707;SDS011;6418;50.824;4.718;2023-03-01T05:45:09;24.33;;;15.20;;
12707;SDS011;6418;50.824;4.718;2023-03-01T05:47:37;27.20;;;16.07;;
12707;SDS011;6418;50.824;4.718;2023-03-01T05:50:10;28.40;;;15.53;;
12707;SDS011;6418;50.824;4.718;2023-03-01T05:52:38;26.53;;;15.50;;
12707;SDS011;6418;50.824;4.718;2023-03-01T05:55:05;28.93;;;16.30;;
12707;SDS011;6418;50.824;4.718;2023-03-01T05:57:33;28.40;;;16.60;;
12707;SDS011;6418;50.824;4.718;2023-03-01T06:00:00;29.07;;;17.00;;
12707;SDS011;6418;50.824;4.718;2023-03-01T06:02:27;28.63;;;16.83;;
12707;SDS011;6418;50.824;4.718;2023-03-01T06:04:55;25.97;;;15.27;;
12707;SDS011;6418;50.824;4.718;2023-03-01T06:07:23;29.40;;;16.40;;
12707;SDS011;6418;50.824;4.718;2023-03-01T06:09:50;25.60;;;15.80;;
12707;SDS011;6418;50.824;4.718;2023-03-01T06:12:17;25.93;;;15.63;;
12707;SDS011;6418;50.824;4.718;2023-03-01T06:14:44;28.03;;;16.00;;
12707;SDS011;6418;50.824;4.718;2023-03-01T06:17:12;23.90;;;15.73;;
12707;SDS011;6418;50.824;4.718;2023-03-01T06:19:39;27.60;;;15.57;;
12707;SDS011;6418;50.824;4.718;2023-03-01T06:22:06;28.17;;;16.67;;
12707;SDS011;6418;50.824;4.718;2023-03-01T06:24:34;30.03;;;16.83;;
12707;SDS011;6418;50.824;4.718;2023-03-01T06:27:01;28.37;;;16.87;;
12707;SDS011;6418;50.824;4.718;2023-03-01T06:29:28;28.10;;;16.03;;
12707;SDS011;6418;50.824;4.718;2023-03-01T06:31:55;27.60;;;16.20;;
12707;SDS011;6418;50.824;4.718;2023-03-01T06:34:22;28.27;;;15.70;;
12707;SDS011;6418;50.824;4.718;2023-03-01T06:36:49;27.07;;;15.53;;
12707;SDS011;6418;50.824;4.718;2023-03-01T06:39:16;26.30;;;16.70;;
12707;SDS011;6418;50.824;4.718;2023-03-01T06:41:44;25.77;;;15.33;;
12707;SDS011;6418;50.824;4.718;2023-03-01T06:44:11;27.03;;;16.10;;
12707;SDS011;6418;50.824;4.718;2023-03-01T06:46:38;23.73;;;15.20;;
12707;SDS011;6418;50.824;4.718;2023-03-01T06:49:06;27.43;;;15.47;;
12707;SDS011;6418;50.824;4.718;2023-03-01T06:51:34;28.43;;;15.93;;
12707;SDS011;6418;50.824;4.718;2023-03-01T06:54:02;25.47;;;15.73;;
12707;SDS011;6418;50.824;4.718;2023-03-01T06:56:29;26.37;;;15.43;;
12707;SDS011;6418;50.824;4.718;2023-03-01T06:58:58;27.23;;;15.30;;
12707;SDS011;6418;50.824;4.718;2023-03-01T07:01:25;25.80;;;15.37;;
12707;SDS011;6418;50.824;4.718;2023-03-01T07:03:52;24.87;;;15.67;;
12707;SDS011;6418;50.824;4.718;2023-03-01T07:06:19;27.50;;;16.10;;
12707;SDS011;6418;50.824;4.718;2023-03-01T07:08:46;30.23;;;17.13;;
12707;SDS011;6418;50.824;4.718;2023-03-01T07:11:13;28.70;;;16.67;;
12707;SDS011;6418;50.824;4.718;2023-03-01T07:13:41;28.23;;;16.30;;
12707;SDS011;6418;50.824;4.718;2023-03-01T07:16:09;26.87;;;15.87;;
12707;SDS011;6418;50.824;4.718;2023-03-01T07:18:36;26.57;;;16.57;;
12707;SDS011;6418;50.824;4.718;2023-03-01T07:21:06;28.73;;;16.57;;
12707;SDS011;6418;50.824;4.718;2023-03-01T07:23:33;25.40;;;16.60;;
12707;SDS011;6418;50.824;4.718;2023-03-01T07:26:00;26.80;;;15.83;;
12707;SDS011;6418;50.824;4.718;2023-03-01T07:28:27;27.57;;;16.57;;
12707;SDS011;6418;50.824;4.718;2023-03-01T07:37:00;28.03;;;16.03;;
12707;SDS011;6418;50.824;4.718;2023-03-01T07:39:30;26.80;;;16.37;;
12707;SDS011;6418;50.824;4.718;2023-03-01T07:42:02;27.43;;;16.77;;
12707;SDS011;6418;50.824;4.718;2023-03-01T07:44:32;27.20;;;16.30;;
12707;SDS011;6418;50.824;4.718;2023-03-01T07:46:59;29.43;;;17.57;;
12707;SDS011;6418;50.824;4.718;2023-03-01T07:49:26;27.13;;;16.67;;
12707;SDS011;6418;50.824;4.718;2023-03-01T07:51:53;30.67;;;17.73;;
12707;SDS011;6418;50.824;4.718;2023-03-01T07:54:21;28.53;;;16.47;;
12707;SDS011;6418;50.824;4.718;2023-03-01T07:56:48;27.57;;;16.17;;
12707;SDS011;6418;50.824;4.718;2023-03-01T08:02:38;28.70;;;17.40;;
12707;SDS011;6418;50.824;4.718;2023-03-01T08:05:07;29.33;;;16.77;;
12707;SDS011;6418;50.824;4.718;2023-03-01T08:07:35;27.30;;;16.40;;
12707;SDS011;6418;50.824;4.718;2023-03-01T08:10:08;28.37;;;17.10;;
12707;SDS011;6418;50.824;4.718;2023-03-01T08:18:46;26.80;;;15.83;;
12707;SDS011;6418;50.824;4.718;2023-03-01T08:21:15;27.47;;;15.90;;
12707;SDS011;6418;50.824;4.718;2023-03-01T08:23:45;27.53;;;16.73;;
12707;SDS011;6418;50.824;4.718;2023-03-01T08:26:20;29.27;;;17.03;;
12707;SDS011;6418;50.824;4.718;2023-03-01T08:28:50;30.07;;;17.83;;
12707;SDS011;6418;50.824;4.718;2023-03-01T08:31:18;27.67;;;16.17;;
12707;SDS011;6418;50.824;4.718;2023-03-01T08:33:49;27.97;;;16.53;;
12707;SDS011;6418;50.824;4.718;2023-03-01T08:36:20;27.17;;;16.17;;
12707;SDS011;6418;50.824;4.718;2023-03-01T08:38:54;28.33;;;16.30;;
12707;SDS011;6418;50.824;4.718;2023-03-01T08:41:30;26.70;;;15.60;;
12707;SDS011;6418;50.824;4.718;2023-03-01T08:43:57;26.23;;;16.07;;
12707;SDS011;6418;50.824;4.718;2023-03-01T08:46:25;29.27;;;16.60;;
12707;SDS011;6418;50.824;4.718;2023-03-01T08:48:52;27.03;;;16.47;;
12707;SDS011;6418;50.824;4.718;2023-03-01T08:51:20;27.87;;;16.33;;
12707;SDS011;6418;50.824;4.718;2023-03-01T08:53:47;28.67;;;16.57;;
12707;SDS011;6418;50.824;4.718;2023-03-01T08:56:15;26.43;;;15.97;;
12707;SDS011;6418;50.824;4.718;2023-03-01T08:58:45;26.23;;;15.53;;
12707;SDS011;6418;50.824;4.718;2023-03-01T09:01:13;26.17;;;15.50;;
12707;SDS011;6418;50.824;4.718;2023-03-01T09:03:42;27.90;;;16.10;;
12707;SDS011;6418;50.824;4.718;2023-03-01T09:06:09;26.93;;;16.47;;
12707;SDS011;6418;50.824;4.718;2023-03-01T09:08:37;28.47;;;16.43;;
12707;SDS011;6418;50.824;4.718;2023-03-01T09:11:05;26.00;;;15.97;;
12707;SDS011;6418;50.824;4.718;2023-03-01T09:13:33;25.50;;;15.40;;
12707;SDS011;6418;50.824;4.718;2023-03-01T09:16:03;26.73;;;16.43;;
12707;SDS011;6418;50.824;4.718;2023-03-01T09:18:34;23.43;;;14.23;;
12707;SDS011;6418;50.824;4.718;2023-03-01T09:21:04;25.83;;;15.17;;
12707;SDS011;6418;50.824;4.718;2023-03-01T09:23:32;27.50;;;16.43;;
12707;SDS011;6418;50.824;4.718;2023-03-01T09:25:59;26.60;;;16.33;;
12707;SDS011;6418;50.824;4.718;2023-03-01T09:28:26;26.37;;;15.70;;
12707;SDS011;6418;50.824;4.718;2023-03-01T09:30:53;25.20;;;15.23;;
12707;SDS011;6418;50.824;4.718;2023-03-01T09:33:24;27.10;;;16.20;;
12707;SDS011;6418;50.824;4.718;2023-03-01T09:35:55;26.17;;;15.23;;
12707;SDS011;6418;50.824;4.718;2023-03-01T09:38:22;25.83;;;15.70;;
12707;SDS011;6418;50.824;4.718;2023-03-01T09:40:49;27.23;;;16.07;;
12707;SDS011;6418;50.824;4.718;2023-03-01T09:43:18;29.73;;;15.73;;
12707;SDS011;6418;50.824;4.718;2023-03-01T09:45:49;24.47;;;14.87;;
12707;SDS011;6418;50.824;4.718;2023-03-01T09:48:19;25.63;;;15.23;;
12707;SDS011;6418;50.824;4.718;2023-03-01T09:50:50;26.37;;;15.60;;
12707;SDS011;6418;50.824;4.718;2023-03-01T09:53:18;28.33;;;14.93;;
12707;SDS011;6418;50.824;4.718;2023-03-01T09:55:48;25.33;;;15.07;;
12707;SDS011;6418;50.824;4.718;2023-03-01T09:58:29;24.47;;;14.63;;
12707;SDS011;6418;50.824;4.718;2023-03-01T10:01:06;26.03;;;15.10;;
12707;SDS011;6418;50.824;4.718;2023-03-01T10:03:51;25.93;;;15.00;;
12707;SDS011;6418;50.824;4.718;2023-03-01T10:06:29;24.63;;;14.17;;
12707;SDS011;6418;50.824;4.718;2023-03-01T10:08:56;24.97;;;14.77;;
12707;SDS011;6418;50.824;4.718;2023-03-01T10:11:26;27.13;;;13.83;;
12707;SDS011;6418;50.824;4.718;2023-03-01T10:13:58;24.03;;;13.43;;
12707;SDS011;6418;50.824;4.718;2023-03-01T10:16:34;22.17;;;13.37;;
12707;SDS011;6418;50.824;4.718;2023-03-01T10:19:10;22.50;;;14.20;;
12707;SDS011;6418;50.824;4.718;2023-03-01T10:21:45;23.87;;;13.83;;
12707;SDS011;6418;50.824;4.718;2023-03-01T10:24:13;27.07;;;14.63;;
12707;SDS011;6418;50.824;4.718;2023-03-01T10:26:46;25.07;;;14.17;;
12707;SDS011;6418;50.824;4.718;2023-03-01T10:29:18;23.73;;;15.20;;
12707;SDS011;6418;50.824;4.718;2023-03-01T10:31:52;23.80;;;14.07;;
12707;SDS011;6418;50.824;4.718;2023-03-01T10:34:21;23.27;;;13.70;;
12707;SDS011;6418;50.824;4.718;2023-03-01T10:36:55;21.07;;;12.27;;
12707;SDS011;6418;50.824;4.718;2023-03-01T10:39:27;22.83;;;13.30;;
12707;SDS011;6418;50.824;4.718;2023-03-01T10:41:55;19.03;;;11.40;;
12707;SDS011;6418;50.824;4.718;2023-03-01T10:44:37;22.40;;;13.17;;
12707;SDS011;6418;50.824;4.718;2023-03-01T10:47:14;23.13;;;13.40;;
12707;SDS011;6418;50.824;4.718;2023-03-01T10:49:55;23.03;;;13.97;;
12707;SDS011;6418;50.824;4.718;2023-03-01T10:52:30;22.83;;;13.13;;
12707;SDS011;6418;50.824;4.718;2023-03-01T10:54:59;23.83;;;14.10;;
12707;SDS011;6418;50.824;4.718;2023-03-01T10:57:36;22.70;;;13.27;;
12707;SDS011;6418;50.824;4.718;2023-03-01T11:03:10;21.83;;;13.03;;
12707;SDS011;6418;50.824;4.718;2023-03-01T11:05:44;22.90;;;12.17;;
12707;SDS011;6418;50.824;4.718;2023-03-01T11:11:18;22.97;;;13.50;;
12707;SDS011;6418;50.824;4.718;2023-03-01T11:13:51;21.37;;;13.00;;
12707;SDS011;6418;50.824;4.718;2023-03-01T11:16:27;21.47;;;13.13;;
12707;SDS011;6418;50.824;4.718;2023-03-01T11:19:03;24.87;;;12.10;;
12707;SDS011;6418;50.824;4.718;2023-03-01T11:21:41;21.50;;;12.53;;
12707;SDS011;6418;50.824;4.718;2023-03-01T11:24:15;22.37;;;12.67;;
12707;SDS011;6418;50.824;4.718;2023-03-01T11:26:44;20.30;;;13.10;;
12707;SDS011;6418;50.824;4.718;2023-03-01T11:29:18;19.60;;;12.90;;
12707;SDS011;6418;50.824;4.718;2023-03-01T11:31:53;23.87;;;13.50;;
12707;SDS011;6418;50.824;4.718;2023-03-01T11:34:35;19.37;;;10.07;;
12707;SDS011;6418;50.824;4.718;2023-03-01T11:37:09;20.83;;;12.00;;
12707;SDS011;6418;50.824;4.718;2023-03-01T11:39:46;21.73;;;12.93;;
12707;SDS011;6418;50.824;4.718;2023-03-01T11:42:17;25.03;;;12.70;;
12707;SDS011;6418;50.824;4.718;2023-03-01T11:44:47;20.03;;;12.53;;
12707;SDS011;6418;50.824;4.718;2023-03-01T11:47:22;21.30;;;13.10;;
12707;SDS011;6418;50.824;4.718;2023-03-01T11:50:09;21.07;;;11.83;;
12707;SDS011;6418;50.824;4.718;2023-03-01T11:52:51;19.07;;;11.50;;
12707;SDS011;6418;50.824;4.718;2023-03-01T11:55:30;19.33;;;11.23;;
12707;SDS011;6418;50.824;4.718;2023-03-01T11:58:27;19.90;;;11.70;;
12707;SDS011;6418;50.824;4.718;2023-03-01T12:04:08;22.63;;;12.03;;
12707;SDS011;6418;50.824;4.718;2023-03-01T12:06:56;20.40;;;12.53;;
12707;SDS011;6418;50.824;4.718;2023-03-01T12:09:30;20.50;;;12.13;;
12707;SDS011;6418;50.824;4.718;2023-03-01T12:15:15;21.07;;;12.50;;
12707;SDS011;6418;50.824;4.718;2023-03-01T12:18:16;20.27;;;12.73;;
12707;SDS011;6418;50.824;4.718;2023-03-01T12:21:10;21.80;;;13.17;;
12707;SDS011;6418;50.824;4.718;2023-03-01T12:23:48;21.80;;;12.93;;
12707;SDS011;6418;50.824;4.718;2023-03-01T12:26:39;21.17;;;12.17;;
12707;SDS011;6418;50.824;4.718;2023-03-01T12:29:25;19.77;;;11.40;;
12707;SDS011;6418;50.824;4.718;2023-03-01T12:32:00;20.53;;;11.97;;
12707;SDS011;6418;50.824;4.718;2023-03-01T12:34:51;22.00;;;12.80;;
12707;SDS011;6418;50.824;4.718;2023-03-01T12:37:32;21.03;;;11.47;;
12707;SDS011;6418;50.824;4.718;2023-03-01T12:43:03;22.57;;;13.30;;
12707;SDS011;6418;50.824;4.718;2023-03-01T12:45:44;19.93;;;12.50;;
12707;SDS011;6418;50.824;4.718;2023-03-01T12:48:24;21.03;;;12.03;;
12707;SDS011;6418;50.824;4.718;2023-03-01T12:51:07;19.07;;;12.37;;
12707;SDS011;6418;50.824;4.718;2023-03-01T12:53:39;19.40;;;11.60;;
12707;SDS011;6418;50.824;4.718;2023-03-01T12:56:08;20.70;;;11.57;;
12707;SDS011;6418;50.824;4.718;2023-03-01T12:58:39;21.33;;;12.37;;
12707;SDS011;6418;50.824;4.718;2023-03-01T13:01:18;20.37;;;12.87;;
12707;SDS011;6418;50.824;4.718;2023-03-01T13:06:44;20.93;;;11.80;;
12707;SDS011;6418;50.824;4.718;2023-03-01T13:09:23;19.60;;;11.57;;
12707;SDS011;6418;50.824;4.718;2023-03-01T13:11:55;20.30;;;11.83;;
12707;SDS011;6418;50.824;4.718;2023-03-01T13:14:42;20.57;;;11.43;;
12707;SDS011;6418;50.824;4.718;2023-03-01T13:17:32;19.87;;;12.03;;
12707;SDS011;6418;50.824;4.718;2023-03-01T13:20:11;23.13;;;11.90;;
12707;SDS011;6418;50.824;4.718;2023-03-01T13:22:40;20.60;;;11.80;;
12707;SDS011;6418;50.824;4.718;2023-03-01T13:25:15;21.23;;;11.90;;
12707;SDS011;6418;50.824;4.718;2023-03-01T13:27:44;19.43;;;12.37;;
12707;SDS011;6418;50.824;4.718;2023-03-01T13:33:33;19.73;;;11.27;;
12707;SDS011;6418;50.824;4.718;2023-03-01T13:36:07;18.87;;;11.47;;
12707;SDS011;6418;50.824;4.718;2023-03-01T13:38:41;19.77;;;11.23;;
12707;SDS011;6418;50.824;4.718;2023-03-01T13:41:13;18.00;;;12.03;;
12707;SDS011;6418;50.824;4.718;2023-03-01T13:43:40;20.47;;;11.50;;
12707;SDS011;6418;50.824;4.718;2023-03-01T13:46:10;20.90;;;12.10;;
12707;SDS011;6418;50.824;4.718;2023-03-01T13:48:44;19.80;;;11.40;;
12707;SDS011;6418;50.824;4.718;2023-03-01T13:51:13;21.43;;;12.07;;
12707;SDS011;6418;50.824;4.718;2023-03-01T13:53:42;19.20;;;11.47;;
12707;SDS011;6418;50.824;4.718;2023-03-01T13:56:12;18.87;;;11.93;;
12707;SDS011;6418;50.824;4.718;2023-03-01T13:58:51;16.83;;;10.73;;
12707;SDS011;6418;50.824;4.718;2023-03-01T14:01:22;24.17;;;13.07;;
12707;SDS011;6418;50.824;4.718;2023-03-01T14:03:52;20.90;;;12.33;;
12707;SDS011;6418;50.824;4.718;2023-03-01T14:06:21;20.57;;;11.47;;
12707;SDS011;6418;50.824;4.718;2023-03-01T14:08:49;17.23;;;9.73;;
12707;SDS011;6418;50.824;4.718;2023-03-01T14:11:25;19.87;;;11.40;;
12707;SDS011;6418;50.824;4.718;2023-03-01T14:20:16;18.73;;;11.40;;
12707;SDS011;6418;50.824;4.718;2023-03-01T14:22:45;18.03;;;10.57;;
12707;SDS011;6418;50.824;4.718;2023-03-01T14:25:17;17.93;;;11.33;;
12707;SDS011;6418;50.824;4.718;2023-03-01T14:27:51;19.90;;;10.97;;
12707;SDS011;6418;50.824;4.718;2023-03-01T14:30:22;19.83;;;11.60;;
12707;SDS011;6418;50.824;4.718;2023-03-01T14:32:52;19.30;;;11.97;;
12707;SDS011;6418;50.824;4.718;2023-03-01T14:35:23;20.63;;;11.13;;
12707;SDS011;6418;50.824;4.718;2023-03-01T14:37:51;19.80;;;11.43;;
12707;SDS011;6418;50.824;4.718;2023-03-01T14:40:22;18.53;;;11.67;;
12707;SDS011;6418;50.824;4.718;2023-03-01T14:42:51;19.13;;;12.10;;
12707;SDS011;6418;50.824;4.718;2023-03-01T14:45:19;21.07;;;11.17;;
12707;SDS011;6418;50.824;4.718;2023-03-01T14:47:46;19.57;;;11.90;;
12707;SDS011;6418;50.824;4.718;2023-03-01T14:50:20;18.87;;;11.17;;
12707;SDS011;6418;50.824;4.718;2023-03-01T14:52:52;20.77;;;11.00;;
12707;SDS011;6418;50.824;4.718;2023-03-01T14:55:22;18.03;;;11.10;;
12707;SDS011;6418;50.824;4.718;2023-03-01T14:57:53;19.43;;;11.17;;
12707;SDS011;6418;50.824;4.718;2023-03-01T15:08:29;18.80;;;10.47;;
12707;SDS011;6418;50.824;4.718;2023-03-01T15:10:59;20.07;;;11.80;;
12707;SDS011;6418;50.824;4.718;2023-03-01T15:13:29;20.50;;;11.17;;
12707;SDS011;6418;50.824;4.718;2023-03-01T15:16:02;19.03;;;11.20;;
12707;SDS011;6418;50.824;4.718;2023-03-01T15:18:35;16.83;;;10.40;;
12707;SDS011;6418;50.824;4.718;2023-03-01T15:21:06;18.40;;;10.37;;
12707;SDS011;6418;50.824;4.718;2023-03-01T15:23:36;20.17;;;10.67;;
12707;SDS011;6418;50.824;4.718;2023-03-01T15:26:05;17.57;;;10.77;;
12707;SDS011;6418;50.824;4.718;2023-03-01T15:28:33;21.17;;;10.87;;
12707;SDS011;6418;50.824;4.718;2023-03-01T15:31:04;20.40;;;11.70;;
12707;SDS011;6418;50.824;4.718;2023-03-01T15:33:38;20.23;;;11.17;;
12707;SDS011;6418;50.824;4.718;2023-03-01T15:36:31;18.57;;;11.13;;
12707;SDS011;6418;50.824;4.718;2023-03-01T15:39:04;18.20;;;11.03;;
12707;SDS011;6418;50.824;4.718;2023-03-01T15:41:32;19.03;;;11.00;;
12707;SDS011;6418;50.824;4.718;2023-03-01T15:44:14;18.23;;;11.00;;
12707;SDS011;6418;50.824;4.718;2023-03-01T15:46:44;16.90;;;10.73;;